Time,TemperatureF,DewpointF,PressureIn,WindDirection,WindDirectionDegrees,WindSpeedMPH,WindSpeedGustMPH,Humidity,HourlyPrecipIn,Conditions,Clouds,dailyrainin,SoftwareType,DateUTC
2013-02-23 00:01:00,21.0,16.0,29.73,South,171,14.0,-999.0,82,-99.99,,,-99.99,,2013-02-23 07:01:00,
2013-02-23 00:11:00,21.0,16.0,29.72,South,172,14.0,-999.0,80,-99.99,,,-99.99,,2013-02-23 07:11:00,
2013-02-23 00:21:00,21.0,15.0,29.76,South,173,12.0,-999.0,78,-99.99,,,-99.99,,2013-02-23 07:21:00,
2013-02-23 00:32:00,22.0,15.0,29.72,South,184,12.0,-999.0,75,-99.99,,,-99.99,,2013-02-23 07:32:00,
2013-02-23 00:42:00,22.0,15.0,29.70,South,176,12.0,-999.0,75,-99.99,,,-99.99,,2013-02-23 07:42:00,
2013-02-23 00:51:00,21.0,15.0,29.72,South,170,13.0,-999.0,76,-99.99,,,-99.99,,2013-02-23 07:51:00,
2013-02-23 01:01:00,22.0,15.0,29.73,South,185,13.0,-999.0,75,-99.99,,,-99.99,,2013-02-23 08:01:00,
2013-02-23 01:11:00,22.0,15.0,29.72,South,180,14.0,-999.0,73,-99.99,,,-99.99,,2013-02-23 08:11:00,
2013-02-23 01:21:00,21.0,14.0,29.73,South,183,12.0,-999.0,73,-99.99,,,-99.99,,2013-02-23 08:21:00,
2013-02-23 01:31:00,22.0,14.0,29.72,South,188,12.0,-999.0,72,-99.99,,,-99.99,,2013-02-23 08:31:00,
2013-02-23 01:42:00,22.0,14.0,29.71,SSW,192,11.0,-999.0,73,-99.99,,,-99.99,,2013-02-23 08:42:00,
2013-02-23 01:52:00,22.0,14.0,29.71,South,190,11.0,-999.0,73,-99.99,,,-99.99,,2013-02-23 08:52:00,
2013-02-23 02:01:00,22.0,14.0,29.70,South,190,11.0,-999.0,72,-99.99,,,-99.99,,2013-02-23 09:01:00,
2013-02-23 02:11:00,22.0,14.0,29.70,South,189,11.0,-999.0,71,-99.99,,,-99.99,,2013-02-23 09:11:00,
2013-02-23 02:21:00,22.0,14.0,29.69,South,187,11.0,-999.0,71,-99.99,,,-99.99,,2013-02-23 09:21:00,
2013-02-23 02:32:00,22.0,14.0,29.69,South,183,11.0,-999.0,72,-99.99,,,-99.99,,2013-02-23 09:32:00,
2013-02-23 02:42:00,22.0,14.0,29.69,SSW,192,12.0,-999.0,72,-99.99,,,-99.99,,2013-02-23 09:42:00,
2013-02-23 02:51:00,22.0,14.0,29.67,South,189,12.0,-999.0,71,-99.99,,,-99.99,,2013-02-23 09:51:00,
2013-02-23 03:01:00,22.0,14.0,29.69,South,190,12.0,-999.0,71,-99.99,,,-99.99,,2013-02-23 10:01:00,
2013-02-23 03:11:00,21.0,14.0,29.70,South,187,12.0,-999.0,73,-99.99,,,-99.99,,2013-02-23 10:11:00,
2013-02-23 03:21:00,22.0,14.0,29.67,South,189,11.0,-999.0,73,-99.99,,,-99.99,,2013-02-23 10:21:00,
2013-02-23 03:32:00,21.0,14.0,29.67,South,187,12.0,-999.0,72,-99.99,,,-99.99,,2013-02-23 10:32:00,
2013-02-23 03:42:00,21.0,14.0,29.67,South,188,11.0,-999.0,73,-99.99,,,-99.99,,2013-02-23 10:42:00,
2013-02-23 03:51:00,21.0,14.0,29.66,South,190,11.0,-999.0,73,-99.99,,,-99.99,,2013-02-23 10:51:00,
2013-02-23 04:02:00,21.0,13.0,29.64,SSW,205,12.0,-999.0,72,-99.99,,,-99.99,,2013-02-23 11:02:00,
2013-02-23 04:11:00,21.0,13.0,29.66,SSW,193,11.0,-999.0,72,-99.99,,,-99.99,,2013-02-23 11:11:00,
2013-02-23 04:22:00,21.0,14.0,29.66,SSW,197,11.0,-999.0,73,-99.99,,,-99.99,,2013-02-23 11:22:00,
2013-02-23 04:32:00,21.0,14.0,29.64,SSW,196,12.0,-999.0,73,-99.99,,,-99.99,,2013-02-23 11:32:00,
2013-02-23 04:42:00,21.0,13.0,29.65,SSW,194,12.0,-999.0,72,-99.99,,,-99.99,,2013-02-23 11:42:00,
2013-02-23 04:52:00,21.0,13.0,29.64,South,188,13.0,-999.0,72,-99.99,,,-99.99,,2013-02-23 11:52:00,
2013-02-23 05:02:00,20.0,13.0,29.66,SSW,192,12.0,-999.0,74,-99.99,,,-99.99,,2013-02-23 12:02:00,
2013-02-23 05:11:00,20.0,13.0,29.65,SSW,192,12.0,-999.0,74,-99.99,,,-99.99,,2013-02-23 12:11:00,
2013-02-23 05:21:00,20.0,13.0,29.65,SSW,193,12.0,-999.0,74,-99.99,,,-99.99,,2013-02-23 12:21:00,
2013-02-23 05:32:00,20.0,13.0,29.63,South,190,11.0,-999.0,73,-99.99,,,-99.99,,2013-02-23 12:32:00,
2013-02-23 05:42:00,20.0,13.0,29.66,South,191,13.0,-999.0,74,-99.99,,,-99.99,,2013-02-23 12:42:00,
2013-02-23 05:52:00,20.0,12.0,29.65,SSW,201,11.0,-999.0,70,-99.99,,,-99.99,,2013-02-23 12:52:00,
2013-02-23 06:01:00,20.0,12.0,29.65,SSW,200,11.0,-999.0,70,-99.99,,,-99.99,,2013-02-23 13:01:00,
2013-02-23 06:11:00,19.0,12.0,29.63,SSW,195,10.0,-999.0,71,-99.99,,,-99.99,,2013-02-23 13:11:00,
2013-02-23 06:22:00,19.0,12.0,29.65,SSW,196,10.0,-999.0,73,-99.99,,,-99.99,,2013-02-23 13:22:00,
2013-02-23 06:32:00,19.0,12.0,29.65,South,189,10.0,-999.0,73,-99.99,,,-99.99,,2013-02-23 13:32:00,
2013-02-23 06:42:00,21.0,11.0,29.62,SSW,198,10.0,-999.0,67,-99.99,,,-99.99,,2013-02-23 13:42:00,
2013-02-23 06:52:00,20.0,11.0,29.65,South,191,10.0,-999.0,66,-99.99,,,-99.99,,2013-02-23 13:52:00,
2013-02-23 07:02:00,20.0,11.0,29.65,South,189,9.0,-999.0,68,-99.99,,,-99.99,,2013-02-23 14:02:00,
2013-02-23 07:11:00,19.0,11.0,29.62,South,179,10.0,-999.0,70,-99.99,,,-99.99,,2013-02-23 14:11:00,
2013-02-23 07:21:00,19.0,11.0,29.63,SSE,166,9.0,-999.0,69,-99.99,,,-99.99,,2013-02-23 14:21:00,
2013-02-23 07:32:00,19.0,10.0,29.62,SSE,164,7.0,-999.0,67,-99.99,,,-99.99,,2013-02-23 14:32:00,
2013-02-23 07:42:00,20.0,10.0,29.62,SSE,155,7.0,-999.0,66,-99.99,,,-99.99,,2013-02-23 14:42:00,
2013-02-23 07:52:00,20.0,10.0,29.61,South,177,8.0,-999.0,64,-99.99,,,-99.99,,2013-02-23 14:52:00,
2013-02-23 08:02:00,21.0,10.0,29.63,SSE,163,6.0,-999.0,63,-99.99,,,-99.99,,2013-02-23 15:02:00,
2013-02-23 08:11:00,22.0,11.0,29.64,South,175,7.0,-999.0,63,-99.99,,,-99.99,,2013-02-23 15:11:00,
2013-02-23 08:22:00,22.0,11.0,29.65,SSE,159,7.0,-999.0,62,-99.99,,,-99.99,,2013-02-23 15:22:00,
2013-02-23 08:32:00,23.0,12.0,29.65,South,174,7.0,-999.0,63,-99.99,,,-99.99,,2013-02-23 15:32:00,
2013-02-23 08:42:00,24.0,12.0,29.64,South,181,7.0,-999.0,61,-99.99,,,-99.99,,2013-02-23 15:42:00,
2013-02-23 08:51:00,24.0,12.0,29.67,SSW,201,8.0,-999.0,59,-99.99,,,-99.99,,2013-02-23 15:51:00,
2013-02-23 09:01:00,24.0,13.0,29.68,South,187,8.0,-999.0,63,-99.99,,,-99.99,,2013-02-23 16:01:00,
2013-02-23 09:11:00,24.0,13.0,29.65,South,185,9.0,-999.0,62,-99.99,,,-99.99,,2013-02-23 16:11:00,
2013-02-23 09:21:00,26.0,14.0,29.66,South,177,7.0,-999.0,60,-99.99,,,-99.99,,2013-02-23 16:21:00,
2013-02-23 09:31:00,25.0,14.0,29.64,South,183,8.0,-999.0,62,-99.99,,,-99.99,,2013-02-23 16:31:00,
2013-02-23 09:42:00,25.0,15.0,29.64,SSW,210,9.0,-999.0,65,-99.99,,,-99.99,,2013-02-23 16:42:00,
2013-02-23 09:51:00,26.0,16.0,29.66,SW,218,10.0,-999.0,66,-99.99,,,-99.99,,2013-02-23 16:51:00,
2013-02-23 10:01:00,27.0,16.0,29.67,SW,227,7.0,-999.0,61,-99.99,,,-99.99,,2013-02-23 17:01:00,
2013-02-23 10:11:00,28.0,16.0,29.66,WSW,245,7.0,-999.0,59,-99.99,,,-99.99,,2013-02-23 17:11:00,
2013-02-23 10:21:00,29.0,18.0,29.65,SW,228,7.0,-999.0,62,-99.99,,,-99.99,,2013-02-23 17:21:00,
2013-02-23 10:32:00,29.0,17.0,29.67,SW,219,6.0,-999.0,59,-99.99,,,-99.99,,2013-02-23 17:32:00,
2013-02-23 10:42:00,30.0,17.0,29.67,WSW,246,10.0,-999.0,58,-99.99,,,-99.99,,2013-02-23 17:42:00,
2013-02-23 10:52:00,31.0,18.0,29.67,SW,217,9.0,-999.0,58,-99.99,,,-99.99,,2013-02-23 17:52:00,
2013-02-23 11:01:00,31.0,16.0,29.65,SW,224,11.0,-999.0,55,-99.99,,,-99.99,,2013-02-23 18:01:00,
2013-02-23 11:12:00,31.0,18.0,29.65,SSW,211,7.0,-999.0,56,-99.99,,,-99.99,,2013-02-23 18:12:00,
2013-02-23 11:22:00,32.0,18.0,29.65,SSW,204,7.0,-999.0,57,-99.99,,,-99.99,,2013-02-23 18:22:00,
2013-02-23 11:32:00,32.0,17.0,29.64,SSW,196,5.0,-999.0,54,-99.99,,,-99.99,,2013-02-23 18:32:00,
2013-02-23 11:42:00,33.0,19.0,29.64,SSW,192,3.0,-999.0,56,-99.99,,,-99.99,,2013-02-23 18:42:00,
2013-02-23 11:51:00,34.0,20.0,29.64,SE,145,2.0,-999.0,55,-99.99,,,-99.99,,2013-02-23 18:51:00,
2013-02-23 12:01:00,35.0,19.0,29.65,North,0,0.0,-999.0,52,-99.99,,,-99.99,,2013-02-23 19:01:00,
2013-02-23 12:11:00,36.0,20.0,29.64,North,0,0.0,-999.0,53,-99.99,,,-99.99,,2013-02-23 19:11:00,
2013-02-23 12:21:00,36.0,21.0,29.63,North,0,0.0,-999.0,55,-99.99,,,-99.99,,2013-02-23 19:21:00,
2013-02-23 12:32:00,35.0,23.0,29.63,South,178,2.0,-999.0,59,-99.99,,,-99.99,,2013-02-23 19:32:00,
2013-02-23 12:41:00,36.0,21.0,29.64,SSE,163,2.0,-999.0,54,-99.99,,,-99.99,,2013-02-23 19:41:00,
2013-02-23 12:52:00,36.0,21.0,29.62,South,185,4.0,-999.0,56,-99.99,,,-99.99,,2013-02-23 19:52:00,
2013-02-23 13:01:00,36.0,21.0,29.63,North,0,0.0,-999.0,54,-99.99,,,-99.99,,2013-02-23 20:01:00,
2013-02-23 13:11:00,35.0,22.0,29.63,ESE,102,5.0,-999.0,60,-99.99,,,-99.99,,2013-02-23 20:11:00,
2013-02-23 13:21:00,34.0,20.0,29.63,NE,54,3.0,-999.0,56,-99.99,,,-99.99,,2013-02-23 20:21:00,
2013-02-23 13:32:00,34.0,20.0,29.62,ENE,70,6.0,-999.0,56,-99.99,,,-99.99,,2013-02-23 20:32:00,
2013-02-23 13:42:00,35.0,18.0,29.61,East,83,6.0,-999.0,51,-99.99,,,-99.99,,2013-02-23 20:42:00,
2013-02-23 13:52:00,35.0,18.0,29.61,East,81,8.0,-999.0,51,-99.99,,,-99.99,,2013-02-23 20:52:00,
2013-02-23 14:01:00,35.0,17.0,29.60,East,95,7.0,-999.0,49,-99.99,,,-99.99,,2013-02-23 21:01:00,
2013-02-23 14:11:00,34.0,19.0,29.62,East,94,8.0,-999.0,53,-99.99,,,-99.99,,2013-02-23 21:11:00,
2013-02-23 14:22:00,35.0,21.0,29.61,ESE,107,7.0,-999.0,56,-99.99,,,-99.99,,2013-02-23 21:22:00,
2013-02-23 14:32:00,35.0,16.0,29.62,SE,129,9.0,-999.0,47,-99.99,,,-99.99,,2013-02-23 21:32:00,
2013-02-23 14:42:00,35.0,16.0,29.61,ESE,117,9.0,-999.0,46,-99.99,,,-99.99,,2013-02-23 21:42:00,
2013-02-23 14:51:00,35.0,18.0,29.62,ESE,111,7.0,-999.0,51,-99.99,,,-99.99,,2013-02-23 21:51:00,
2013-02-23 15:01:00,34.0,18.0,29.62,East,95,8.0,-999.0,51,-99.99,,,-99.99,,2013-02-23 22:01:00,
2013-02-23 15:11:00,34.0,18.0,29.61,East,97,6.0,-999.0,52,-99.99,,,-99.99,,2013-02-23 22:11:00,
2013-02-23 15:22:00,34.0,18.0,29.62,ESE,119,7.0,-999.0,52,-99.99,,,-99.99,,2013-02-23 22:22:00,
2013-02-23 15:31:00,34.0,19.0,29.63,ESE,112,6.0,-999.0,54,-99.99,,,-99.99,,2013-02-23 22:31:00,
2013-02-23 15:42:00,34.0,19.0,29.62,ESE,113,7.0,-999.0,55,-99.99,,,-99.99,,2013-02-23 22:42:00,
2013-02-23 15:51:00,34.0,20.0,29.63,East,100,5.0,-999.0,58,-99.99,,,-99.99,,2013-02-23 22:51:00,
2013-02-23 16:01:00,33.0,21.0,29.62,East,87,7.0,-999.0,61,-99.99,,,-99.99,,2013-02-23 23:01:00,
2013-02-23 16:11:00,33.0,21.0,29.63,East,92,6.0,-999.0,62,-99.99,,,-99.99,,2013-02-23 23:11:00,
2013-02-23 16:21:00,33.0,22.0,29.62,East,87,8.0,-999.0,64,-99.99,,,-99.99,,2013-02-23 23:21:00,
2013-02-23 16:31:00,32.0,21.0,29.62,East,86,9.0,-999.0,64,-99.99,,,-99.99,,2013-02-23 23:31:00,
2013-02-23 16:42:00,32.0,21.0,29.64,East,92,6.0,-999.0,63,-99.99,,,-99.99,,2013-02-23 23:42:00,
2013-02-23 16:52:00,32.0,21.0,29.64,East,86,5.0,-999.0,64,-99.99,,,-99.99,,2013-02-23 23:52:00,
2013-02-23 17:01:00,32.0,22.0,29.64,East,90,7.0,-999.0,64,-99.99,,,-99.99,,2013-02-24 00:01:00,
2013-02-23 17:11:00,33.0,22.0,29.64,East,93,8.0,-999.0,64,-99.99,,,-99.99,,2013-02-24 00:11:00,
2013-02-23 17:22:00,32.0,21.0,29.63,East,84,5.0,-999.0,63,-99.99,,,-99.99,,2013-02-24 00:22:00,
2013-02-23 17:32:00,32.0,21.0,29.65,ESE,102,6.0,-999.0,64,-99.99,,,-99.99,,2013-02-24 00:32:00,
2013-02-23 17:42:00,31.0,22.0,29.63,ESE,107,7.0,-999.0,69,-99.99,,,-99.99,,2013-02-24 00:42:00,
2013-02-23 17:52:00,31.0,20.0,29.65,ESE,103,9.0,-999.0,64,-99.99,,,-99.99,,2013-02-24 00:52:00,
2013-02-23 18:01:00,30.0,20.0,29.67,East,100,6.0,-999.0,66,-99.99,,,-99.99,,2013-02-24 01:01:00,
2013-02-23 18:11:00,30.0,19.0,29.66,East,84,4.0,-999.0,65,-99.99,,,-99.99,,2013-02-24 01:11:00,
2013-02-23 18:22:00,29.0,20.0,29.67,ENE,78,5.0,-999.0,68,-99.99,,,-99.99,,2013-02-24 01:22:00,
2013-02-23 18:31:00,29.0,21.0,29.67,East,87,6.0,-999.0,72,-99.99,,,-99.99,,2013-02-24 01:31:00,
2013-02-23 18:42:00,28.0,21.0,29.67,East,92,5.0,-999.0,74,-99.99,,,-99.99,,2013-02-24 01:42:00,
2013-02-23 18:51:00,27.0,21.0,29.68,East,96,8.0,-999.0,78,-99.99,,,-99.99,,2013-02-24 01:51:00,
2013-02-23 19:01:00,27.0,21.0,29.67,East,98,9.0,-999.0,78,-99.99,,,-99.99,,2013-02-24 02:01:00,
2013-02-23 19:11:00,26.0,20.0,29.67,East,95,9.0,-999.0,79,-99.99,,,-99.99,,2013-02-24 02:11:00,
2013-02-23 19:21:00,26.0,20.0,29.68,East,87,13.0,-999.0,79,-99.99,,,-99.99,,2013-02-24 02:21:00,
2013-02-23 19:32:00,26.0,20.0,29.68,East,83,12.0,-999.0,78,-99.99,,,-99.99,,2013-02-24 02:32:00,
2013-02-23 19:42:00,25.0,19.0,29.68,East,87,10.0,-999.0,77,-99.99,,,-99.99,,2013-02-24 02:42:00,
2013-02-23 19:52:00,26.0,19.0,29.69,East,101,9.0,-999.0,75,-99.99,,,-99.99,,2013-02-24 02:52:00,
2013-02-23 20:02:00,25.0,19.0,29.68,ESE,111,7.0,-999.0,77,-99.99,,,-99.99,,2013-02-24 03:02:00,
2013-02-23 20:11:00,26.0,19.0,29.69,ESE,110,5.0,-999.0,75,-99.99,,,-99.99,,2013-02-24 03:11:00,
2013-02-23 20:21:00,26.0,19.0,29.71,North,0,0.0,-999.0,75,-99.99,,,-99.99,,2013-02-24 03:21:00,
2013-02-23 20:32:00,26.0,19.0,29.69,ENE,68,4.0,-999.0,76,-99.99,,,-99.99,,2013-02-24 03:32:00,
2013-02-23 20:42:00,26.0,19.0,29.71,East,96,7.0,-999.0,74,-99.99,,,-99.99,,2013-02-24 03:42:00,
2013-02-23 20:52:00,25.0,19.0,29.70,East,95,9.0,-999.0,78,-99.99,,,-99.99,,2013-02-24 03:52:00,
2013-02-23 21:01:00,25.0,19.0,29.69,East,79,4.0,-999.0,78,-99.99,,,-99.99,,2013-02-24 04:01:00,
2013-02-23 21:11:00,25.0,19.0,29.69,ENE,76,6.0,-999.0,79,-99.99,,,-99.99,,2013-02-24 04:11:00,
2013-02-23 21:21:00,24.0,19.0,29.69,ENE,59,5.0,-999.0,80,-99.99,,,-99.99,,2013-02-24 04:21:00,
2013-02-23 21:32:00,25.0,20.0,29.70,ENE,61,4.0,-999.0,79,-99.99,,,-99.99,,2013-02-24 04:32:00,
2013-02-23 21:42:00,25.0,19.0,29.71,NE,55,4.0,-999.0,80,-99.99,,,-99.99,,2013-02-24 04:42:00,
2013-02-23 21:52:00,24.0,19.0,29.71,NE,36,4.0,-999.0,81,-99.99,,,-99.99,,2013-02-24 04:52:00,
2013-02-23 22:01:00,22.0,18.0,29.71,NW,317,4.0,-999.0,84,-99.99,,,-99.99,,2013-02-24 05:01:00,
2013-02-23 22:11:00,22.0,19.0,29.74,North,-999,5.0,-999.0,86,-99.99,,,-99.99,,2013-02-24 05:11:00,
2013-02-23 22:22:00,23.0,19.0,29.71,NNE,17,5.0,-999.0,86,-99.99,,,-99.99,,2013-02-24 05:22:00,
2013-02-23 22:32:00,23.0,20.0,29.74,NE,35,5.0,-999.0,87,-99.99,,,-99.99,,2013-02-24 05:32:00,
2013-02-23 22:42:00,23.0,20.0,29.74,ENE,62,4.0,-999.0,87,-99.99,,,-99.99,,2013-02-24 05:42:00,
2013-02-23 22:52:00,24.0,20.0,29.73,NE,44,3.0,-999.0,87,-99.99,,,-99.99,,2013-02-24 05:52:00,
2013-02-23 23:01:00,24.0,21.0,29.74,NE,36,4.0,-999.0,87,-99.99,,,-99.99,,2013-02-24 06:01:00,
2013-02-23 23:11:00,24.0,20.0,29.74,NNW,328,2.0,-999.0,87,-99.99,,,-99.99,,2013-02-24 06:11:00,
2013-02-23 23:21:00,23.0,20.0,29.74,WNW,282,4.0,-999.0,87,-99.99,,,-99.99,,2013-02-24 06:21:00,
2013-02-23 23:32:00,23.0,20.0,29.75,North,4,2.0,-999.0,87,-99.99,,,-99.99,,2013-02-24 06:32:00,
2013-02-23 23:42:00,23.0,20.0,29.74,NNE,21,2.0,-999.0,88,-99.99,,,-99.99,,2013-02-24 06:42:00,
2013-02-23 23:52:00,23.0,20.0,29.74,NE,36,2.0,-999.0,89,-99.99,,,-99.99,,2013-02-24 06:52:00,